createdAt,value
2023-02-27T00:00:02.089Z,0
2023-02-27T00:01:02.682Z,0
2023-02-27T00:02:03.278Z,0
2023-02-27T00:03:03.873Z,0
2023-02-27T00:04:04.539Z,0
2023-02-27T00:05:05.145Z,0
2023-02-27T00:06:05.749Z,0
2023-02-27T00:07:06.342Z,0
2023-02-27T00:08:06.932Z,0
2023-02-27T00:09:07.616Z,0
2023-02-27T00:10:08.187Z,0
2023-02-27T00:11:08.782Z,0
2023-02-27T00:12:09.387Z,0
2023-02-27T00:13:09.972Z,0
2023-02-27T00:14:10.567Z,0
2023-02-27T00:15:11.164Z,0
2023-02-27T00:16:12.957Z,0
2023-02-27T00:17:13.354Z,0
2023-02-27T00:18:13.950Z,0
2023-02-27T00:19:14.566Z,0
2023-02-27T00:20:15.176Z,0
2023-02-27T00:21:15.766Z,0
2023-02-27T00:22:16.363Z,0
2023-02-27T00:23:16.976Z,0
2023-02-27T00:24:17.590Z,0
2023-02-27T00:25:18.184Z,0
2023-02-27T00:26:18.774Z,0
2023-02-27T00:27:19.391Z,0
2023-02-27T00:28:19.976Z,0
2023-02-27T00:29:20.589Z,0
2023-02-27T00:30:21.185Z,0
2023-02-27T00:31:21.883Z,0
2023-02-27T00:32:22.445Z,0
2023-02-27T00:33:23.023Z,0
2023-02-27T00:34:23.614Z,0
2023-02-27T00:35:24.214Z,0
2023-02-27T00:36:24.825Z,0
2023-02-27T00:37:25.430Z,0
2023-02-27T00:38:26.021Z,0
2023-02-27T00:39:26.615Z,0
2023-02-27T00:40:27.204Z,0
2023-02-27T00:41:28.132Z,0
2023-02-27T00:42:28.811Z,0
2023-02-27T00:43:29.410Z,0
2023-02-27T00:44:30.020Z,0
2023-02-27T00:45:30.630Z,0
2023-02-27T00:46:31.255Z,0
2023-02-27T00:47:31.820Z,0
2023-02-27T00:48:32.405Z,0
2023-02-27T00:49:32.998Z,0
2023-02-27T00:50:33.592Z,0
2023-02-27T00:51:34.183Z,0
2023-02-27T00:52:34.774Z,0
2023-02-27T00:53:35.387Z,0
2023-02-27T00:54:35.977Z,0
2023-02-27T00:55:36.570Z,0
2023-02-27T00:56:37.181Z,0
2023-02-27T00:57:37.819Z,0
2023-02-27T00:58:38.367Z,0
2023-02-27T00:59:38.968Z,0
2023-02-27T01:00:39.578Z,0
2023-02-27T01:01:40.165Z,0
2023-02-27T01:02:40.766Z,0
2023-02-27T01:03:41.365Z,0
2023-02-27T01:04:41.944Z,0
2023-02-27T01:05:42.544Z,0
2023-02-27T01:06:43.131Z,0
2023-02-27T01:07:43.721Z,0
2023-02-27T01:08:44.315Z,0
2023-02-27T01:09:44.914Z,0
2023-02-27T01:10:45.514Z,0
2023-02-27T01:11:46.121Z,0
2023-02-27T01:12:46.710Z,0
2023-02-27T01:13:47.305Z,0
2023-02-27T01:14:47.896Z,0
2023-02-27T01:15:48.489Z,0
2023-02-27T01:16:49.083Z,0
2023-02-27T01:17:49.680Z,0
2023-02-27T01:18:50.272Z,0
2023-02-27T01:19:50.862Z,0
2023-02-27T01:20:51.453Z,0
2023-02-27T01:21:52.062Z,0
2023-02-27T01:22:52.643Z,0
2023-02-27T01:23:53.236Z,0
2023-02-27T01:24:53.829Z,0
2023-02-27T01:25:54.423Z,0
2023-02-27T01:26:55.021Z,0
2023-02-27T01:27:55.632Z,0
2023-02-27T01:28:56.221Z,0
2023-02-27T01:29:56.813Z,0
2023-02-27T01:30:57.456Z,0
2023-02-27T01:31:58.119Z,0
2023-02-27T01:32:58.614Z,0
2023-02-27T01:33:59.214Z,0
2023-02-27T01:34:59.804Z,0
2023-02-27T01:36:00.398Z,0
2023-02-27T01:37:01.014Z,0
2023-02-27T01:38:01.607Z,0
2023-02-27T01:39:02.213Z,0
2023-02-27T01:40:02.790Z,0
2023-02-27T01:41:03.382Z,0
2023-02-27T01:42:03.977Z,0
2023-02-27T01:43:04.570Z,0
2023-02-27T01:44:05.166Z,0
2023-02-27T01:45:05.757Z,0
2023-02-27T01:46:06.428Z,0
2023-02-27T01:47:06.995Z,0
2023-02-27T01:48:07.583Z,0
2023-02-27T01:49:08.182Z,0
2023-02-27T01:50:08.796Z,0
2023-02-27T01:51:09.384Z,0
2023-02-27T01:52:09.975Z,0
2023-02-27T01:53:10.570Z,0
2023-02-27T01:54:11.159Z,0
2023-02-27T01:55:11.757Z,0
2023-02-27T01:56:12.370Z,0
2023-02-27T01:57:12.990Z,0
2023-02-27T01:58:13.572Z,0
2023-02-27T01:59:14.183Z,0
2023-02-27T02:00:14.780Z,0
2023-02-27T02:01:15.444Z,0
2023-02-27T02:02:16.021Z,0
2023-02-27T02:03:16.616Z,0
2023-02-27T02:04:17.230Z,0
2023-02-27T02:05:17.823Z,0
2023-02-27T02:06:18.417Z,0
2023-02-27T02:07:19.009Z,0
2023-02-27T02:08:19.603Z,0
2023-02-27T02:09:20.220Z,0
2023-02-27T02:10:20.790Z,0
2023-02-27T02:11:21.385Z,0
2023-02-27T02:12:21.999Z,0
2023-02-27T02:13:22.596Z,0
2023-02-27T02:14:23.181Z,0
2023-02-27T02:15:23.788Z,0
2023-02-27T02:16:24.405Z,0
2023-02-27T02:17:24.956Z,0
2023-02-27T02:18:25.552Z,0
2023-02-27T02:19:26.143Z,0
2023-02-27T02:20:26.762Z,0
2023-02-27T02:21:27.583Z,0
2023-02-27T02:22:28.269Z,0
2023-02-27T02:23:28.865Z,0
2023-02-27T02:24:29.454Z,0
2023-02-27T02:25:30.067Z,0
2023-02-27T02:26:33.264Z,0
2023-02-27T02:27:32.247Z,0
2023-02-27T02:28:32.844Z,0
2023-02-27T02:29:33.430Z,0
2023-02-27T02:30:34.104Z,0
2023-02-27T02:31:34.827Z,0
2023-02-27T02:32:35.403Z,0
2023-02-27T02:33:35.991Z,0
2023-02-27T02:34:36.582Z,0
2023-02-27T02:35:37.175Z,0
2023-02-27T02:36:37.773Z,0
2023-02-27T02:37:38.359Z,0
2023-02-27T02:38:38.955Z,0
2023-02-27T02:39:39.545Z,0
2023-02-27T02:40:40.138Z,0
2023-02-27T02:41:40.736Z,0
2023-02-27T02:42:41.327Z,0
2023-02-27T02:43:41.919Z,0
2023-02-27T02:44:42.533Z,0
2023-02-27T02:48:09.820Z,0
2023-02-27T02:49:10.432Z,0
2023-02-27T02:50:11.028Z,0
2023-02-27T02:51:11.617Z,0
2023-02-27T02:52:12.212Z,0
2023-02-27T02:53:12.814Z,0
2023-02-27T02:54:13.394Z,0
2023-02-27T02:55:13.990Z,0
2023-02-27T02:56:14.601Z,0
2023-02-27T02:57:15.199Z,0
2023-02-27T02:58:15.816Z,0
2023-02-27T02:59:16.401Z,0
2023-02-27T03:00:16.988Z,0
2023-02-27T03:01:17.678Z,0
2023-02-27T03:02:18.216Z,0
2023-02-27T03:03:18.805Z,0
2023-02-27T03:04:19.421Z,0
2023-02-27T03:05:19.987Z,0
2023-02-27T03:06:20.578Z,0
2023-02-27T03:07:21.249Z,0
2023-02-27T03:08:21.833Z,0
2023-02-27T03:09:22.444Z,0
2023-02-27T03:10:23.036Z,0
2023-02-27T03:11:23.628Z,0
2023-02-27T03:12:24.226Z,0
2023-02-27T03:13:24.818Z,0
2023-02-27T03:14:25.413Z,0
2023-02-27T03:15:26.006Z,0
2023-02-27T03:16:26.593Z,0
2023-02-27T03:17:27.191Z,0
2023-02-27T03:18:27.779Z,0
2023-02-27T03:19:28.370Z,0
2023-02-27T03:20:28.963Z,0
2023-02-27T03:21:29.623Z,0
2023-02-27T03:22:30.158Z,0
2023-02-27T03:23:30.768Z,0
2023-02-27T03:24:31.361Z,0
2023-02-27T03:25:31.950Z,0
2023-02-27T03:26:32.543Z,0
2023-02-27T03:27:33.133Z,0
2023-02-27T03:28:33.726Z,0
2023-02-27T03:29:34.318Z,0
2023-02-27T03:30:34.945Z,0
2023-02-27T03:31:35.629Z,0
2023-02-27T03:32:36.338Z,0
2023-02-27T03:33:36.933Z,0
2023-02-27T03:34:37.523Z,0
2023-02-27T03:35:38.139Z,0
2023-02-27T03:36:38.734Z,0
2023-02-27T03:37:39.329Z,0
2023-02-27T03:38:39.921Z,0
2023-02-27T03:39:40.516Z,0
2023-02-27T03:40:41.123Z,0
2023-02-27T03:41:41.718Z,0
2023-02-27T03:42:42.329Z,0
2023-02-27T03:43:42.925Z,0
2023-02-27T03:44:43.544Z,0
2023-02-27T03:45:44.114Z,0
2023-02-27T03:46:44.772Z,0
2023-02-27T03:47:45.319Z,0
2023-02-27T03:48:45.918Z,0
2023-02-27T03:49:46.535Z,0
2023-02-27T03:50:47.128Z,0
2023-02-27T03:51:47.708Z,0
2023-02-27T03:52:48.299Z,0
2023-02-27T03:53:48.894Z,0
2023-02-27T03:54:49.501Z,0
2023-02-27T03:55:50.076Z,0
2023-02-27T03:56:50.669Z,0
2023-02-27T03:57:51.272Z,0
2023-02-27T03:58:51.852Z,0
2023-02-27T03:59:52.459Z,0
2023-02-27T04:00:53.037Z,0
2023-02-27T04:01:53.691Z,0
2023-02-27T04:02:54.294Z,0
2023-02-27T04:03:54.850Z,0
2023-02-27T04:04:55.456Z,0
2023-02-27T04:05:56.050Z,0
2023-02-27T04:06:56.641Z,0
2023-02-27T04:07:57.237Z,0
2023-02-27T04:08:57.821Z,0
2023-02-27T04:09:58.419Z,0
2023-02-27T04:10:59.027Z,0
2023-02-27T04:11:59.621Z,0
2023-02-27T04:13:00.211Z,0
2023-02-27T04:14:00.804Z,0
2023-02-27T04:15:01.393Z,0
2023-02-27T04:16:02.023Z,0
2023-02-27T04:17:02.599Z,0
2023-02-27T04:18:03.191Z,0
2023-02-27T04:19:03.782Z,0
2023-02-27T04:20:04.378Z,0
2023-02-27T04:21:04.990Z,0
2023-02-27T04:22:05.583Z,0
2023-02-27T04:23:06.178Z,0
2023-02-27T04:24:06.771Z,0
2023-02-27T04:25:07.366Z,0
2023-02-27T04:26:07.958Z,0
2023-02-27T04:27:08.564Z,0
2023-02-27T04:28:09.171Z,0
2023-02-27T04:29:09.753Z,0
2023-02-27T04:30:10.349Z,0
2023-02-27T04:31:11.100Z,0
2023-02-27T04:32:11.605Z,0
2023-02-27T04:33:12.193Z,0
2023-02-27T04:34:12.802Z,0
2023-02-27T04:35:13.416Z,0
2023-02-27T04:36:14.011Z,0
2023-02-27T04:37:14.603Z,0
2023-02-27T04:38:15.218Z,0
2023-02-27T04:39:15.806Z,0
2023-02-27T04:40:16.407Z,0
2023-02-27T04:41:16.998Z,0
2023-02-27T04:42:17.620Z,0
2023-02-27T04:43:18.218Z,0
2023-02-27T04:44:18.808Z,0
2023-02-27T04:45:19.402Z,0
2023-02-27T04:46:19.998Z,0
2023-02-27T04:47:20.608Z,0
2023-02-27T04:48:21.226Z,0
2023-02-27T04:49:21.831Z,0
2023-02-27T04:50:22.424Z,0
2023-02-27T04:51:23.044Z,0
2023-02-27T04:52:23.627Z,0
2023-02-27T04:53:24.256Z,0
2023-02-27T04:54:24.834Z,0
2023-02-27T04:55:25.446Z,0
2023-02-27T04:56:26.050Z,0
2023-02-27T04:57:26.631Z,0
2023-02-27T04:58:27.226Z,0
2023-02-27T04:59:27.838Z,0
2023-02-27T05:00:28.431Z,0
2023-02-27T05:01:29.333Z,0
2023-02-27T05:02:30.189Z,0
2023-02-27T05:03:30.691Z,0
2023-02-27T05:04:31.284Z,0
2023-02-27T05:05:31.876Z,0
2023-02-27T05:06:32.470Z,0
2023-02-27T05:07:33.068Z,0
2023-02-27T05:08:33.674Z,0
2023-02-27T05:09:34.287Z,0
2023-02-27T05:10:34.894Z,0
2023-02-27T05:11:35.472Z,0
2023-02-27T05:12:36.087Z,0
2023-02-27T05:13:36.674Z,0
2023-02-27T05:14:37.285Z,0
2023-02-27T05:15:37.919Z,0
2023-02-27T05:16:38.621Z,0
2023-02-27T05:17:39.197Z,0
2023-02-27T05:18:39.790Z,0
2023-02-27T05:19:40.380Z,0
2023-02-27T05:20:40.971Z,0
2023-02-27T05:21:41.565Z,0
2023-02-27T05:22:42.184Z,0
2023-02-27T05:23:42.775Z,0
2023-02-27T05:24:43.375Z,0
2023-02-27T05:25:43.980Z,0
2023-02-27T05:26:44.572Z,0
2023-02-27T05:27:45.164Z,0
2023-02-27T05:28:45.755Z,0
2023-02-27T05:29:46.346Z,0
2023-02-27T05:30:46.962Z,0
2023-02-27T05:31:47.637Z,0
2023-02-27T05:32:48.165Z,0
2023-02-27T05:33:48.755Z,0
2023-02-27T05:34:49.344Z,0
2023-02-27T05:35:50.026Z,0
2023-02-27T05:36:50.572Z,0
2023-02-27T05:37:51.159Z,0
2023-02-27T05:38:51.742Z,0
2023-02-27T05:39:52.338Z,0
2023-02-27T05:40:52.927Z,0
2023-02-27T05:41:53.518Z,4
2023-02-27T05:42:54.112Z,4
2023-02-27T05:43:54.703Z,0
2023-02-27T05:44:55.296Z,4
2023-02-27T05:45:55.958Z,0
2023-02-27T05:46:56.514Z,4
2023-02-27T05:47:57.105Z,8
2023-02-27T05:48:57.702Z,8
2023-02-27T05:49:58.294Z,12
2023-02-27T05:50:58.886Z,12
2023-02-27T05:51:59.484Z,12
2023-02-27T05:53:00.094Z,16
2023-02-27T05:54:00.670Z,20
2023-02-27T05:55:01.266Z,24
2023-02-27T05:56:01.859Z,28
2023-02-27T05:57:02.455Z,36
2023-02-27T05:58:03.055Z,40
2023-02-27T05:59:03.661Z,52
2023-02-27T06:00:04.254Z,60
2023-02-27T06:01:04.849Z,72
2023-02-27T06:02:05.470Z,84
2023-02-27T06:03:06.073Z,96
2023-02-27T06:04:06.640Z,112
2023-02-27T06:05:07.235Z,128
2023-02-27T06:06:07.840Z,152
2023-02-27T06:07:08.702Z,172
2023-02-27T06:08:09.270Z,196
2023-02-27T06:09:09.864Z,220
2023-02-27T06:10:10.478Z,252
2023-02-27T06:11:11.080Z,280
2023-02-27T06:12:11.728Z,312
2023-02-27T06:13:12.313Z,348
2023-02-27T06:14:12.928Z,388
2023-02-27T06:15:13.524Z,428
2023-02-27T06:16:14.190Z,476
2023-02-27T06:17:14.764Z,520
2023-02-27T06:18:15.363Z,572
2023-02-27T06:19:15.954Z,624
2023-02-27T06:20:16.558Z,672
2023-02-27T06:21:17.148Z,728
2023-02-27T06:22:17.744Z,788
2023-02-27T06:23:18.355Z,848
2023-02-27T06:24:20.363Z,908
2023-02-27T06:25:20.551Z,972
2023-02-27T06:26:21.188Z,1044
2023-02-27T06:27:21.829Z,1124
2023-02-27T06:28:22.421Z,1200
2023-02-27T06:29:23.020Z,1276
2023-02-27T06:30:23.615Z,1332
2023-02-27T06:31:24.211Z,1388
2023-02-27T06:32:24.809Z,1452
2023-02-27T06:33:25.404Z,1516
2023-02-27T06:34:26.023Z,1584
2023-02-27T06:35:26.619Z,1660
2023-02-27T06:36:27.450Z,1732
2023-02-27T06:37:28.174Z,1808
2023-02-27T06:38:28.778Z,1884
2023-02-27T06:39:29.368Z,1948
2023-02-27T06:40:29.964Z,2012
2023-02-27T06:41:30.566Z,2080
2023-02-27T06:42:31.158Z,2148
2023-02-27T06:43:31.757Z,2224
2023-02-27T06:44:32.354Z,2296
2023-02-27T06:45:32.953Z,2360
2023-02-27T06:46:33.564Z,2420
2023-02-27T06:47:34.146Z,2484
2023-02-27T06:48:34.743Z,2552
2023-02-27T06:49:35.341Z,2616
2023-02-27T06:50:35.940Z,2684
2023-02-27T06:51:36.538Z,2744
2023-02-27T06:52:37.139Z,2812
2023-02-27T06:53:37.851Z,2876
2023-02-27T06:54:38.449Z,2948
2023-02-27T06:55:39.079Z,3004
2023-02-27T06:56:39.660Z,3080
2023-02-27T06:57:40.277Z,3156
2023-02-27T06:58:40.860Z,3240
2023-02-27T06:59:41.485Z,3308
2023-02-27T07:00:42.094Z,3308
2023-02-27T07:01:42.731Z,3324
2023-02-27T07:02:43.311Z,3388
2023-02-27T07:03:43.910Z,3468
2023-02-27T07:04:44.559Z,3580
2023-02-27T07:05:45.121Z,3648
2023-02-27T07:07:35.710Z,3652
2023-02-27T07:07:47.310Z,3660
2023-02-27T07:09:01.967Z,3676
2023-02-27T07:09:48.535Z,3716
2023-02-27T07:10:49.291Z,3840
2023-02-27T07:11:49.849Z,4196
2023-02-27T07:12:50.444Z,4680
2023-02-27T07:13:51.041Z,4944
2023-02-27T07:14:51.660Z,5016
2023-02-27T07:15:52.386Z,4828
2023-02-27T07:16:52.992Z,4808
2023-02-27T07:17:53.605Z,5036
2023-02-27T07:18:54.206Z,5532
2023-02-27T07:19:54.804Z,5804
2023-02-27T07:20:55.395Z,5224
2023-02-27T07:21:56.003Z,5012
2023-02-27T07:22:56.596Z,6016
2023-02-27T07:23:57.193Z,6616
2023-02-27T07:24:57.801Z,6772
2023-02-27T07:25:58.389Z,6920
2023-02-27T07:26:58.988Z,7096
2023-02-27T07:27:59.595Z,7308
2023-02-27T07:29:00.212Z,7500
2023-02-27T07:30:00.820Z,7668
2023-02-27T07:31:01.481Z,7868
2023-02-27T07:32:02.058Z,8072
2023-02-27T07:33:02.632Z,8184
2023-02-27T07:34:03.231Z,8236
2023-02-27T07:35:03.828Z,8468
2023-02-27T07:36:04.449Z,8856
2023-02-27T07:37:05.026Z,8904
2023-02-27T07:38:05.623Z,8972
2023-02-27T07:39:06.243Z,9512
2023-02-27T07:40:06.838Z,9776
2023-02-27T07:41:07.436Z,9880
2023-02-27T07:42:08.033Z,10212
2023-02-27T07:43:08.632Z,10740
2023-02-27T07:44:09.253Z,11016
2023-02-27T07:45:09.852Z,11204
2023-02-27T07:46:10.461Z,10892
2023-02-27T07:47:11.056Z,10916
2023-02-27T07:48:11.647Z,11600
2023-02-27T07:49:12.250Z,12000
2023-02-27T07:50:12.847Z,12376
2023-02-27T07:51:13.451Z,12668
2023-02-27T07:52:14.043Z,12932
2023-02-27T07:53:14.644Z,13004
2023-02-27T07:54:15.245Z,13188
2023-02-27T07:55:15.850Z,13376
2023-02-27T07:56:16.446Z,13328
2023-02-27T07:57:17.048Z,13396
2023-02-27T07:58:17.644Z,13472
2023-02-27T07:59:18.259Z,13588
2023-02-27T08:00:18.861Z,13780
2023-02-27T08:01:19.457Z,14104
2023-02-27T08:02:20.118Z,14396
2023-02-27T08:03:20.698Z,14784
2023-02-27T08:04:21.313Z,15408
2023-02-27T08:05:21.898Z,15796
2023-02-27T08:06:22.496Z,15624
2023-02-27T08:07:23.095Z,15584
2023-02-27T08:08:23.693Z,15760
2023-02-27T08:09:24.294Z,15956
2023-02-27T08:10:24.897Z,16152
2023-02-27T08:11:25.898Z,16424
2023-02-27T08:12:26.653Z,16604
2023-02-27T08:13:55.797Z,16752
2023-02-27T08:14:28.845Z,17280
2023-02-27T08:15:29.444Z,17440
2023-02-27T08:16:30.443Z,17696
2023-02-27T08:17:31.207Z,18016
2023-02-27T08:18:32.969Z,18304
2023-02-27T08:19:33.393Z,18688
2023-02-27T08:20:34.013Z,18944
2023-02-27T08:21:34.607Z,19104
2023-02-27T08:22:35.204Z,19328
2023-02-27T08:23:35.823Z,19840
2023-02-27T08:24:36.408Z,21056
2023-02-27T08:25:37.016Z,20896
2023-02-27T08:26:37.606Z,21216
2023-02-27T08:27:38.211Z,21440
2023-02-27T08:28:38.826Z,21600
2023-02-27T08:29:39.421Z,21792
2023-02-27T08:30:40.028Z,21568
2023-02-27T08:31:40.661Z,21248
2023-02-27T08:32:41.233Z,20864
2023-02-27T08:33:41.851Z,20544
2023-02-27T08:34:42.451Z,19968
2023-02-27T08:35:43.065Z,20000
2023-02-27T08:36:43.649Z,19552
2023-02-27T08:37:44.282Z,19584
2023-02-27T08:38:44.867Z,19040
2023-02-27T08:39:45.515Z,19200
2023-02-27T08:40:46.093Z,18208
2023-02-27T08:41:46.689Z,18912
2023-02-27T08:42:47.292Z,18176
2023-02-27T08:43:47.894Z,18752
2023-02-27T08:44:48.513Z,21312
2023-02-27T08:45:49.108Z,21728
2023-02-27T08:46:49.686Z,23872
2023-02-27T08:47:50.286Z,20896
2023-02-27T08:48:50.887Z,21472
2023-02-27T08:49:51.493Z,21504
2023-02-27T08:50:52.091Z,21792
2023-02-27T08:51:52.686Z,22688
2023-02-27T08:52:53.280Z,23520
2023-02-27T08:53:53.905Z,23264
2023-02-27T08:54:54.479Z,23040
2023-02-27T08:55:55.075Z,24608
2023-02-27T08:56:55.693Z,26016
2023-02-27T08:57:56.296Z,25440
2023-02-27T08:58:56.908Z,24128
2023-02-27T08:59:57.521Z,24416
2023-02-27T09:00:58.127Z,25024
2023-02-27T09:01:58.713Z,23872
2023-02-27T09:02:59.358Z,23104
2023-02-27T09:03:59.936Z,24544
2023-02-27T09:05:00.534Z,27104
2023-02-27T09:06:01.132Z,28800
2023-02-27T09:07:01.733Z,28672
2023-02-27T09:08:02.337Z,27648
2023-02-27T09:09:02.952Z,28320
2023-02-27T09:10:03.554Z,29824
2023-02-27T09:11:04.152Z,27616
2023-02-27T09:12:04.750Z,23648
2023-02-27T09:13:05.370Z,25824
2023-02-27T09:14:05.986Z,33664
2023-02-27T09:15:06.587Z,37184
2023-02-27T09:16:07.228Z,33440
2023-02-27T09:17:07.812Z,30944
2023-02-27T09:18:08.432Z,34304
2023-02-27T09:19:09.059Z,38624
2023-02-27T09:20:09.651Z,39104
2023-02-27T09:21:10.261Z,38688
2023-02-27T09:22:10.857Z,40608
2023-02-27T09:23:11.460Z,41568
2023-02-27T09:24:19.830Z,41792
2023-02-27T09:25:13.646Z,42784
2023-02-27T09:26:14.276Z,47264
2023-02-27T09:27:14.865Z,49280
2023-02-27T09:28:15.466Z,43328
2023-02-27T09:29:16.088Z,41888
2023-02-27T09:30:16.688Z,47392
2023-02-27T09:31:17.338Z,52928
2023-02-27T09:32:18.030Z,52416
2023-02-27T09:33:18.598Z,45632
2023-02-27T09:34:19.211Z,42528
2023-02-27T09:35:19.808Z,42560
2023-02-27T09:36:20.399Z,43264
2023-02-27T09:37:21.029Z,44160
2023-02-27T09:38:21.630Z,46752
2023-02-27T09:39:22.251Z,50880
2023-02-27T09:40:22.931Z,51040
2023-02-27T09:41:23.561Z,47552
2023-02-27T09:42:24.160Z,44032
2023-02-27T09:43:24.817Z,44000
2023-02-27T09:44:39.907Z,47296
2023-02-27T09:45:26.964Z,48672
2023-02-27T09:46:27.811Z,48896
2023-02-27T09:47:28.599Z,52128
2023-02-27T09:48:29.165Z,56832
2023-02-27T09:49:29.766Z,59200
2023-02-27T09:50:31.224Z,57472
2023-02-27T09:51:32.041Z,54688
2023-02-27T09:52:32.659Z,52224
2023-02-27T09:53:33.273Z,51168
2023-02-27T09:54:33.875Z,50816
2023-02-27T09:55:34.510Z,49696
2023-02-27T09:56:35.074Z,49248
2023-02-27T09:57:35.683Z,52736
2023-02-27T09:58:36.280Z,58528
2023-02-27T09:59:36.879Z,58912
2023-02-27T10:00:37.483Z,51232
2023-02-27T10:01:38.075Z,47616
2023-02-27T10:02:38.707Z,56000
2023-02-27T10:03:39.304Z,64992
2023-02-27T10:04:39.888Z,65568
2023-02-27T10:05:40.491Z,59136
2023-02-27T10:06:41.106Z,55712
2023-02-27T10:07:41.726Z,61472
2023-02-27T10:08:42.340Z,69984
2023-02-27T10:09:42.948Z,72192
2023-02-27T10:10:43.572Z,69120
2023-02-27T10:11:44.227Z,67072
2023-02-27T10:12:44.835Z,62592
2023-02-27T10:13:45.433Z,56128
2023-02-27T10:14:46.041Z,54688
2023-02-27T10:15:46.655Z,62048
2023-02-27T10:16:47.292Z,73120
2023-02-27T10:17:47.853Z,74464
2023-02-27T10:18:48.455Z,63584
2023-02-27T10:19:49.072Z,54880
2023-02-27T10:20:49.672Z,61728
2023-02-27T10:21:50.290Z,77696
2023-02-27T10:22:50.876Z,87200
2023-02-27T10:23:51.473Z,82368
2023-02-27T10:24:52.094Z,72128
2023-02-27T10:25:52.692Z,70016
2023-02-27T10:26:53.311Z,78048
2023-02-27T10:27:53.910Z,84832
2023-02-27T10:28:54.509Z,81696
2023-02-27T10:29:55.130Z,72896
2023-02-27T10:30:55.749Z,70016
2023-02-27T10:31:56.377Z,77952
2023-02-27T10:32:56.974Z,87392
2023-02-27T10:33:57.577Z,86112
2023-02-27T10:34:58.191Z,75296
2023-02-27T10:36:00.728Z,66464
2023-02-27T10:37:00.383Z,71872
2023-02-27T10:38:00.989Z,84736
2023-02-27T10:39:01.589Z,87200
2023-02-27T10:40:02.181Z,74528
2023-02-27T10:41:02.784Z,59488
2023-02-27T10:42:03.385Z,51232
2023-02-27T10:43:06.233Z,57632
2023-02-27T10:44:04.601Z,71264
2023-02-27T10:45:05.204Z,76448
2023-02-27T10:46:05.829Z,71808
2023-02-27T10:47:06.418Z,65440
2023-02-27T10:48:07.019Z,58208
2023-02-27T10:49:07.616Z,47840
2023-02-27T10:50:08.215Z,41568
2023-02-27T10:51:08.817Z,45696
2023-02-27T10:52:09.433Z,59296
2023-02-27T10:53:10.036Z,68288
2023-02-27T10:54:10.658Z,65984
2023-02-27T10:55:11.273Z,56832
2023-02-27T10:56:11.870Z,51680
2023-02-27T10:57:12.469Z,56320
2023-02-27T10:58:13.068Z,68160
2023-02-27T10:59:13.670Z,75456
2023-02-27T11:00:14.270Z,75360
2023-02-27T11:01:14.933Z,43872
2023-02-27T11:02:15.488Z,52704
2023-02-27T11:03:16.088Z,54176
2023-02-27T11:04:16.693Z,63904
2023-02-27T11:05:17.314Z,80064
2023-02-27T11:06:17.910Z,42976
2023-02-27T11:07:18.519Z,14932
2023-02-27T11:08:19.108Z,22336
2023-02-27T11:09:19.710Z,75424
2023-02-27T11:10:20.327Z,76864
2023-02-27T11:11:20.909Z,81440
2023-02-27T11:12:21.522Z,87424
2023-02-27T11:13:22.109Z,81696
2023-02-27T11:14:22.713Z,70528
2023-02-27T11:15:23.350Z,73376
2023-02-27T11:16:23.949Z,87072
2023-02-27T11:17:24.565Z,92864
2023-02-27T11:18:25.168Z,86144
2023-02-27T11:19:25.796Z,76256
2023-02-27T11:20:26.385Z,73536
2023-02-27T11:21:27.419Z,77376
2023-02-27T11:22:28.251Z,88256
2023-02-27T11:23:28.839Z,92544
2023-02-27T11:24:29.504Z,89632
2023-02-27T11:25:30.060Z,86432
2023-02-27T11:26:30.678Z,87488
2023-02-27T11:27:31.296Z,86304
2023-02-27T11:28:31.898Z,79232
2023-02-27T11:29:32.500Z,77024
2023-02-27T11:30:33.102Z,78528
2023-02-27T11:31:33.754Z,79744
2023-02-27T11:32:34.315Z,77696
2023-02-27T11:33:34.924Z,76256
2023-02-27T11:34:35.516Z,74208
2023-02-27T11:35:36.206Z,72736
2023-02-27T11:36:36.785Z,74528
2023-02-27T11:37:37.385Z,80160
2023-02-27T11:38:37.991Z,24928
2023-02-27T11:39:38.588Z,30624
2023-02-27T11:40:39.184Z,19616
2023-02-27T11:41:39.790Z,21344
2023-02-27T11:42:40.388Z,25568
2023-02-27T11:43:40.985Z,20704
2023-02-27T11:44:50.232Z,17388
2023-02-27T11:46:13.702Z,17520
2023-02-27T11:46:48.298Z,17920
2023-02-27T11:47:46.362Z,84128
2023-02-27T11:48:46.971Z,89472
2023-02-27T11:49:47.581Z,89952
2023-02-27T11:50:48.184Z,48768
2023-02-27T11:51:48.787Z,22496
2023-02-27T11:52:49.378Z,23552
2023-02-27T11:53:49.982Z,19872
2023-02-27T11:54:50.579Z,26368
2023-02-27T11:55:51.200Z,79520
2023-02-27T11:56:51.818Z,37728
2023-02-27T11:57:52.417Z,56000
2023-02-27T11:58:53.018Z,55200
2023-02-27T11:59:53.621Z,75520
2023-02-27T12:00:54.220Z,87872
2023-02-27T12:01:54.816Z,98656
2023-02-27T12:02:55.560Z,99776
2023-02-27T12:03:56.162Z,90816
2023-02-27T12:04:56.741Z,81696
2023-02-27T12:05:57.380Z,82080
2023-02-27T12:06:57.946Z,92736
2023-02-27T12:07:58.553Z,101216
2023-02-27T12:08:59.168Z,98496
2023-02-27T12:09:59.770Z,93344
2023-02-27T12:11:13.204Z,91904
2023-02-27T12:12:01.965Z,61760
2023-02-27T12:13:02.562Z,19312
2023-02-27T12:14:04.085Z,15992
2023-02-27T12:15:03.808Z,79008
2023-02-27T12:16:04.466Z,107072
2023-02-27T12:17:05.016Z,100864
2023-02-27T12:18:05.622Z,93152
2023-02-27T12:19:06.214Z,86912
2023-02-27T12:20:06.815Z,90560
2023-02-27T12:21:07.432Z,97536
2023-02-27T12:22:08.060Z,100800
2023-02-27T12:23:08.681Z,74144
2023-02-27T12:24:09.279Z,104544
2023-02-27T12:25:09.879Z,89248
2023-02-27T12:26:10.489Z,72800
2023-02-27T12:27:11.080Z,70272
2023-02-27T12:28:11.681Z,81728
2023-02-27T12:29:12.291Z,98272
2023-02-27T12:30:12.910Z,113536
2023-02-27T12:31:13.546Z,115584
2023-02-27T12:32:14.222Z,103296
2023-02-27T12:33:14.788Z,84864
2023-02-27T12:34:16.130Z,74048
2023-02-27T12:35:16.732Z,83008
2023-02-27T12:36:17.337Z,106720
2023-02-27T12:37:17.933Z,119968
2023-02-27T12:38:18.538Z,118848
2023-02-27T12:39:19.138Z,104288
2023-02-27T12:40:19.739Z,35104
2023-02-27T12:41:20.340Z,16788
2023-02-27T12:42:20.939Z,24160
2023-02-27T12:43:21.569Z,111328
2023-02-27T12:44:22.191Z,68992
2023-02-27T12:45:22.800Z,17520
2023-02-27T12:46:23.385Z,17008
2023-02-27T12:47:23.998Z,78592
2023-02-27T12:48:24.607Z,70720
2023-02-27T12:49:25.210Z,71392
2023-02-27T12:50:25.813Z,78144
2023-02-27T12:51:26.673Z,84640
2023-02-27T12:52:27.052Z,88544
2023-02-27T12:53:27.655Z,87232
2023-02-27T12:54:28.277Z,86688
2023-02-27T12:55:28.876Z,89088
2023-02-27T12:56:29.469Z,91200
2023-02-27T12:57:30.078Z,96320
2023-02-27T12:58:30.694Z,100128
2023-02-27T12:59:31.335Z,50624
2023-02-27T13:00:31.935Z,110720
2023-02-27T13:01:32.622Z,37376
2023-02-27T13:02:33.188Z,31616
2023-02-27T13:03:33.810Z,60320
2023-02-27T13:04:34.392Z,54624
2023-02-27T13:05:35.062Z,76000
2023-02-27T13:06:37.324Z,75392
2023-02-27T13:07:37.242Z,79648
2023-02-27T13:08:37.834Z,79264
2023-02-27T13:09:38.436Z,35872
2023-02-27T13:10:39.037Z,26240
2023-02-27T13:11:39.636Z,24896
2023-02-27T13:12:40.243Z,21888
2023-02-27T13:13:40.844Z,22240
2023-02-27T13:14:41.446Z,25472
2023-02-27T13:15:42.050Z,28640
2023-02-27T13:16:42.680Z,24096
2023-02-27T13:17:43.242Z,23968
2023-02-27T13:18:43.844Z,74624
2023-02-27T13:19:44.459Z,40864
2023-02-27T13:20:45.071Z,25984
2023-02-27T13:21:45.667Z,24928
2023-02-27T13:22:46.266Z,24576
2023-02-27T13:23:46.885Z,27296
2023-02-27T13:24:47.482Z,29408
2023-02-27T13:25:48.091Z,28992
2023-02-27T13:26:48.703Z,28160
2023-02-27T13:27:49.303Z,28864
2023-02-27T13:28:49.903Z,26400
2023-02-27T13:29:50.502Z,57408
2023-02-27T13:30:51.104Z,41792
2023-02-27T13:31:51.814Z,63264
2023-02-27T13:32:52.533Z,100864
2023-02-27T13:33:53.101Z,97184
2023-02-27T13:34:53.701Z,89152
2023-02-27T13:35:54.327Z,62208
2023-02-27T13:36:54.902Z,71520
2023-02-27T13:37:55.502Z,79808
2023-02-27T13:38:56.103Z,99808
2023-02-27T13:39:56.701Z,111808
2023-02-27T13:40:57.308Z,103680
2023-02-27T13:41:57.915Z,88352
2023-02-27T13:42:58.538Z,75392
2023-02-27T13:43:59.141Z,73920
2023-02-27T13:44:59.736Z,86816
2023-02-27T13:46:00.375Z,96416
2023-02-27T13:47:01.015Z,94432
2023-02-27T13:48:01.570Z,91520
2023-02-27T13:49:02.164Z,79936
2023-02-27T13:50:02.777Z,75328
2023-02-27T13:51:03.378Z,82080
2023-02-27T13:52:03.992Z,91584